Time;durP1;ratioP1;P1;durP2;ratioP2;P2;SDS_P1;SDS_P2;PMS_P1;PMS_P2;Temp;Humidity;BMP_temperature;BMP_pressure;BME280_temperature;BME280_humidity;BME280_pressure;Samples;Min_cycle;Max_cycle;Signal;HPM_P1;HPM_P2
2022/08/30 00:01:23;;;;;;;6.45;4.25;;;15.80;99.90;;;;;;5051736;28;20119;-75
2022/08/30 00:03:49;;;;;;;5.93;3.88;;;15.80;99.90;;;;;;5053536;28;20025;-75
2022/08/30 00:06:17;;;;;;;5.53;4.60;;;15.80;99.90;;;;;;5053435;28;20025;-76
2022/08/30 00:08:44;;;;;;;7.72;4.57;;;15.80;99.90;;;;;;5053368;28;20039;-75
2022/08/30 00:11:12;;;;;;;5.05;3.97;;;15.70;99.90;;;;;;5068505;28;20039;-75
2022/08/30 00:13:40;;;;;;;5.90;4.57;;;15.70;99.90;;;;;;5052959;28;20111;-76
2022/08/30 00:16:06;;;;;;;5.22;4.45;;;15.70;99.90;;;;;;5053136;28;20028;-76
2022/08/30 00:18:34;;;;;;;7.10;4.60;;;15.70;99.90;;;;;;5053471;28;20108;-75
2022/08/30 00:21:00;;;;;;;6.25;4.43;;;15.70;99.90;;;;;;5052811;28;20036;-75
2022/08/30 00:23:26;;;;;;;7.70;4.47;;;15.70;99.90;;;;;;5053042;28;20385;-76
2022/08/30 00:25:52;;;;;;;6.80;4.85;;;15.70;99.90;;;;;;5052570;28;20029;-75
2022/08/30 00:28:18;;;;;;;6.95;4.53;;;15.60;99.90;;;;;;5051947;28;20025;-74
2022/08/30 00:30:44;;;;;;;5.40;4.40;;;15.60;99.90;;;;;;5052540;28;20095;-75
2022/08/30 00:33:12;;;;;;;5.25;4.20;;;15.60;99.90;;;;;;5053278;28;20066;-75
2022/08/30 00:35:38;;;;;;;5.45;4.13;;;15.60;99.90;;;;;;5052826;28;20090;-76
2022/08/30 00:38:05;;;;;;;4.53;3.67;;;15.50;99.90;;;;;;5052823;28;20139;-75
2022/08/30 00:40:31;;;;;;;5.75;4.50;;;15.50;99.90;;;;;;5054498;28;20380;-76
2022/08/30 00:42:58;;;;;;;7.65;4.45;;;15.50;99.90;;;;;;5057083;28;20032;-75
2022/08/30 00:45:28;;;;;;;5.97;4.22;;;15.40;99.90;;;;;;5056929;28;20020;-76
2022/08/30 00:47:54;;;;;;;5.05;4.45;;;15.40;99.90;;;;;;5056561;28;20428;-76
2022/08/30 00:50:24;;;;;;;7.60;4.53;;;15.20;99.90;;;;;;5056596;28;20024;-76
2022/08/30 00:52:53;;;;;;;5.43;4.40;;;15.20;99.90;;;;;;5056415;28;20048;-75
2022/08/30 00:55:20;;;;;;;6.53;4.20;;;15.20;99.90;;;;;;5056747;28;20028;-76
2022/08/30 00:57:49;;;;;;;5.25;4.18;;;15.20;99.90;;;;;;5056312;28;20029;-75
2022/08/30 01:00:16;;;;;;;7.20;4.85;;;15.20;99.90;;;;;;5056951;28;20112;-74
2022/08/30 01:02:42;;;;;;;5.10;4.22;;;15.20;99.90;;;;;;5056433;28;20033;-74
2022/08/30 01:05:10;;;;;;;7.57;4.50;;;15.20;99.90;;;;;;5056297;28;20017;-75
2022/08/30 01:07:38;;;;;;;6.70;4.40;;;15.20;99.90;;;;;;5055199;28;20112;-74
2022/08/30 01:10:06;;;;;;;7.82;4.18;;;15.20;99.90;;;;;;5056521;28;20060;-75
2022/08/30 01:12:32;;;;;;;5.65;3.70;;;15.20;99.90;;;;;;5056199;28;20028;-75
2022/08/30 01:14:58;;;;;;;6.35;3.90;;;15.10;99.90;;;;;;5071455;28;20041;-75
2022/08/30 01:17:25;;;;;;;8.77;4.20;;;15.10;99.90;;;;;;5056217;28;20393;-75
2022/08/30 01:19:57;;;;;;;8.43;4.72;;;15.10;99.90;;;;;;5056037;28;20023;-75
2022/08/30 01:22:29;;;;;;;4.95;4.15;;;15.10;99.90;;;;;;5056172;28;20103;-75
2022/08/30 01:24:58;;;;;;;7.13;5.15;;;15.00;99.90;;;;;;5056235;28;20025;-75
2022/08/30 01:27:25;;;;;;;5.35;4.50;;;15.00;99.90;;;;;;5055887;28;20401;-75
2022/08/30 01:29:52;;;;;;;6.43;4.43;;;15.00;99.90;;;;;;5054556;28;20040;-75
2022/08/30 01:32:24;;;;;;;6.68;4.88;;;15.00;99.90;;;;;;5054284;28;20037;-74
2022/08/30 01:34:50;;;;;;;7.05;4.57;;;15.00;99.90;;;;;;5055753;28;20078;-75
2022/08/30 01:37:20;;;;;;;6.15;4.53;;;14.90;99.90;;;;;;5071259;28;20024;-74
2022/08/30 01:39:46;;;;;;;5.75;4.88;;;14.90;99.90;;;;;;5055781;28;20350;-75
2022/08/30 01:42:17;;;;;;;6.15;4.72;;;14.80;99.90;;;;;;5055618;28;20029;-75
2022/08/30 01:44:45;;;;;;;5.53;4.30;;;14.80;99.90;;;;;;5056159;28;20028;-74
2022/08/30 01:47:12;;;;;;;6.07;4.38;;;14.80;99.90;;;;;;5055444;28;20051;-75
2022/08/30 01:49:38;;;;;;;8.68;4.88;;;14.80;99.90;;;;;;5055675;28;20114;-75
2022/08/30 01:52:05;;;;;;;6.72;5.00;;;14.80;99.90;;;;;;5055410;28;20036;-75
2022/08/30 01:54:33;;;;;;;8.02;4.65;;;14.80;99.90;;;;;;5055964;28;20025;-75
2022/08/30 01:56:59;;;;;;;7.85;4.57;;;14.80;99.90;;;;;;5055156;28;20032;-75
2022/08/30 01:59:24;;;;;;;7.75;4.80;;;14.70;99.90;;;;;;5055658;28;20021;-75
2022/08/30 02:01:51;;;;;;;5.72;4.35;;;14.80;99.90;;;;;;5055205;28;20469;-75
2022/08/30 02:04:17;;;;;;;7.97;4.55;;;14.70;99.90;;;;;;5055216;28;20060;-74
2022/08/30 02:06:43;;;;;;;6.65;4.55;;;14.70;99.90;;;;;;5055634;28;20434;-74
2022/08/30 02:09:10;;;;;;;10.13;5.28;;;14.70;99.90;;;;;;5055392;28;20017;-75
2022/08/30 02:11:36;;;;;;;6.57;4.78;;;14.70;99.90;;;;;;5053573;28;20075;-75
2022/08/30 02:14:02;;;;;;;6.22;4.70;;;14.70;99.90;;;;;;5054893;28;20037;-75
2022/08/30 02:16:27;;;;;;;6.90;5.30;;;14.70;99.90;;;;;;5055496;28;20025;-75
2022/08/30 02:18:56;;;;;;;6.00;4.40;;;14.70;99.90;;;;;;5054808;28;20100;-75
2022/08/30 02:21:22;;;;;;;6.35;4.88;;;14.60;99.90;;;;;;5055178;28;20032;-75
2022/08/30 02:23:48;;;;;;;5.82;4.43;;;14.60;99.90;;;;;;5055119;28;20419;-75
2022/08/30 02:26:15;;;;;;;6.38;4.28;;;14.60;99.90;;;;;;5054757;28;20029;-74
2022/08/30 02:28:41;;;;;;;5.20;4.20;;;14.60;99.90;;;;;;5054986;28;20522;-75
2022/08/30 02:31:07;;;;;;;6.45;4.75;;;14.70;99.90;;;;;;5053567;28;20473;-74
2022/08/30 02:33:32;;;;;;;6.88;5.00;;;14.60;99.90;;;;;;5054682;28;20028;-74
2022/08/30 02:35:58;;;;;;;6.65;4.50;;;14.60;99.90;;;;;;5054861;28;20393;-74
2022/08/30 02:38:25;;;;;;;7.57;4.93;;;14.70;99.90;;;;;;5054338;28;20035;-74
2022/08/30 02:40:51;;;;;;;12.13;6.38;;;14.60;99.90;;;;;;5054314;28;20033;-74
2022/08/30 02:43:18;;;;;;;10.25;7.05;;;14.60;99.90;;;;;;5054741;28;20051;-75
2022/08/30 02:45:43;;;;;;;14.35;7.70;;;14.50;99.90;;;;;;5054384;28;20048;-75
2022/08/30 02:48:09;;;;;;;12.50;7.70;;;14.40;99.90;;;;;;5054568;28;20057;-75
2022/08/30 02:50:40;;;;;;;14.15;8.27;;;14.40;99.90;;;;;;5054051;28;20033;-75
2022/08/30 02:53:05;;;;;;;13.48;8.80;;;14.40;99.90;;;;;;5054823;28;20031;-75
2022/08/30 02:55:31;;;;;;;14.13;9.02;;;14.30;99.90;;;;;;5052979;28;20032;-75
2022/08/30 02:57:57;;;;;;;14.52;9.00;;;14.40;99.90;;;;;;5054323;28;20029;-75
2022/08/30 03:00:23;;;;;;;11.43;8.45;;;14.40;99.90;;;;;;5053940;28;20040;-75
2022/08/30 03:02:48;;;;;;;13.10;8.48;;;14.40;99.90;;;;;;5053625;28;20025;-75
2022/08/30 03:05:17;;;;;;;11.10;7.75;;;14.40;99.90;;;;;;5054608;28;20381;-75
2022/08/30 03:07:44;;;;;;;11.00;7.15;;;14.50;99.90;;;;;;5053894;28;20112;-75
2022/08/30 03:10:10;;;;;;;7.82;5.93;;;14.40;99.90;;;;;;5054505;28;20029;-75
2022/08/30 03:12:37;;;;;;;7.78;6.15;;;14.40;99.90;;;;;;5053912;28;20036;-75
2022/08/30 03:15:04;;;;;;;11.13;6.50;;;14.40;99.90;;;;;;5052451;28;20489;-75
2022/08/30 03:17:30;;;;;;;14.27;6.35;;;14.40;99.90;;;;;;5053449;28;20068;-75
2022/08/30 03:19:59;;;;;;;10.60;7.22;;;14.40;99.90;;;;;;5054325;28;20095;-75
2022/08/30 03:22:25;;;;;;;11.38;7.72;;;14.40;99.90;;;;;;5054031;28;20017;-75
2022/08/30 03:24:50;;;;;;;15.02;8.75;;;14.40;99.90;;;;;;5053669;28;20116;-75
2022/08/30 03:27:16;;;;;;;12.52;7.95;;;14.40;99.90;;;;;;5053363;28;20448;-75
2022/08/30 03:29:42;;;;;;;10.93;7.28;;;14.40;99.90;;;;;;5052362;28;20090;-75
2022/08/30 03:32:07;;;;;;;11.07;7.32;;;14.40;99.90;;;;;;5053589;28;20042;-75
2022/08/30 03:34:33;;;;;;;12.90;7.50;;;14.40;99.90;;;;;;5053669;28;20029;-75
2022/08/30 03:37:00;;;;;;;13.52;7.55;;;14.30;99.90;;;;;;5053902;28;20052;-74
2022/08/30 03:39:26;;;;;;;11.07;6.63;;;14.30;99.90;;;;;;5053266;28;20470;-75
2022/08/30 03:41:52;;;;;;;11.07;6.65;;;14.30;99.90;;;;;;5053738;28;20025;-75
2022/08/30 03:44:19;;;;;;;10.20;5.90;;;14.30;99.90;;;;;;5053723;28;20036;-75
2022/08/30 03:46:45;;;;;;;8.35;6.10;;;14.30;99.90;;;;;;5053602;28;20425;-75
2022/08/30 03:49:15;;;;;;;7.50;5.78;;;14.30;99.90;;;;;;5053182;28;20061;-75
2022/08/30 03:51:40;;;;;;;8.38;5.55;;;14.30;99.90;;;;;;5053341;28;20021;-75
2022/08/30 03:54:06;;;;;;;8.82;5.82;;;14.30;99.90;;;;;;5068821;28;20120;-74
2022/08/30 03:56:32;;;;;;;7.78;5.60;;;14.30;99.90;;;;;;5053324;28;20024;-75
2022/08/30 03:59:00;;;;;;;7.32;5.45;;;14.20;99.90;;;;;;5068755;28;20497;-75
2022/08/30 04:01:26;;;;;;;6.78;4.80;;;14.20;99.90;;;;;;5053270;28;20029;-75
2022/08/30 04:03:51;;;;;;;6.15;4.45;;;14.20;99.90;;;;;;5053456;28;20068;-75
2022/08/30 04:06:17;;;;;;;5.25;4.07;;;14.20;99.90;;;;;;5053443;28;20037;-75
2022/08/30 04:08:44;;;;;;;5.60;4.05;;;14.20;99.90;;;;;;5053310;28;20401;-75
2022/08/30 04:11:13;;;;;;;5.57;3.97;;;14.20;99.90;;;;;;5053135;28;20113;-75
2022/08/30 04:13:39;;;;;;;8.18;4.47;;;14.20;99.90;;;;;;5052737;28;20033;-75
2022/08/30 04:16:05;;;;;;;5.80;4.43;;;14.20;99.90;;;;;;5054575;28;20435;-75
2022/08/30 04:18:30;;;;;;;6.28;5.10;;;14.20;99.90;;;;;;5055728;28;20358;-74
2022/08/30 04:20:56;;;;;;;7.22;5.07;;;14.20;99.90;;;;;;5071318;28;20047;-75
2022/08/30 04:23:22;;;;;;;8.15;5.60;;;14.20;99.90;;;;;;5055776;28;20025;-75
2022/08/30 04:25:47;;;;;;;10.02;6.05;;;14.20;99.90;;;;;;5055736;28;20025;-75
2022/08/30 04:28:13;;;;;;;8.60;6.05;;;14.20;99.90;;;;;;5055541;28;20029;-75
2022/08/30 04:30:41;;;;;;;8.70;5.88;;;14.20;99.90;;;;;;5055615;28;20033;-75
2022/08/30 04:33:07;;;;;;;8.18;6.07;;;14.20;99.90;;;;;;5055902;28;20029;-75
2022/08/30 04:35:33;;;;;;;9.95;6.47;;;14.10;99.90;;;;;;5055537;28;20374;-75
2022/08/30 04:37:58;;;;;;;9.68;6.65;;;14.10;99.90;;;;;;5055423;28;20033;-75
2022/08/30 04:40:24;;;;;;;10.15;6.10;;;14.10;99.90;;;;;;5054212;28;20029;-75
2022/08/30 04:42:52;;;;;;;7.65;5.78;;;14.10;99.90;;;;;;5055524;28;20021;-77
2022/08/30 04:45:20;;;;;;;8.82;6.50;;;14.10;99.90;;;;;;5055380;28;20032;-74
2022/08/30 04:47:46;;;;;;;9.85;6.05;;;14.10;99.90;;;;;;5055111;28;20053;-75
2022/08/30 04:50:16;;;;;;;8.88;6.35;;;14.10;99.90;;;;;;5055353;28;20033;-74
2022/08/30 04:52:42;;;;;;;12.07;6.60;;;14.10;99.90;;;;;;5055564;28;20028;-74
2022/08/30 04:55:09;;;;;;;13.45;7.25;;;14.00;99.90;;;;;;5055500;28;20424;-75
2022/08/30 04:57:36;;;;;;;12.50;7.13;;;14.00;99.90;;;;;;5054855;28;20049;-75
2022/08/30 05:00:07;;;;;;;10.52;7.00;;;14.00;99.90;;;;;;5055202;28;20547;-75
2022/08/30 05:02:32;;;;;;;;;;;14.00;99.90;;;;;;5055576;28;20021;-75
2022/08/30 05:07:42;;;;;;;10.45;7.25;;;14.00;99.90;;;;;;5067913;28;20432;-75
2022/08/30 05:10:08;;;;;;;9.13;6.38;;;14.00;99.90;;;;;;5055549;28;20033;-75
2022/08/30 05:12:34;;;;;;;10.32;6.68;;;14.00;99.90;;;;;;5055252;28;20087;-75
2022/08/30 05:15:00;;;;;;;10.88;7.45;;;14.00;99.90;;;;;;5013961;28;1168383;-75
2022/08/30 05:17:25;;;;;;;11.38;7.63;;;14.00;99.90;;;;;;5056012;28;20048;-75
2022/08/30 05:19:51;;;;;;;10.93;6.43;;;14.10;99.90;;;;;;5054667;28;20025;-75
2022/08/30 05:22:17;;;;;;;13.30;7.60;;;14.10;99.90;;;;;;5056060;28;20488;-75
2022/08/30 05:24:42;;;;;;;11.68;7.07;;;14.10;99.90;;;;;;5055978;28;20435;-75
2022/08/30 05:27:08;;;;;;;10.60;6.78;;;14.10;99.90;;;;;;5055694;28;20111;-75
2022/08/30 05:29:34;;;;;;;9.32;6.10;;;14.10;99.90;;;;;;5071012;28;20040;-74
2022/08/30 05:31:59;;;;;;;7.82;5.85;;;14.10;99.90;;;;;;5056091;28;20036;-74
2022/08/30 05:34:28;;;;;;;7.60;5.88;;;14.10;99.90;;;;;;5055772;28;20025;-75
2022/08/30 05:36:53;;;;;;;7.50;5.25;;;14.10;99.90;;;;;;5055571;28;20029;-75
2022/08/30 05:39:19;;;;;;;8.60;6.00;;;14.10;99.90;;;;;;5071116;28;20564;-75
2022/08/30 05:41:45;;;;;;;9.00;6.72;;;14.20;99.90;;;;;;5055574;28;20071;-75
2022/08/30 05:44:10;;;;;;;10.55;6.80;;;14.20;99.90;;;;;;5054404;28;20064;-75
2022/08/30 05:46:38;;;;;;;7.25;5.57;;;14.20;99.90;;;;;;5055571;28;20029;-75
2022/08/30 05:49:05;;;;;;;8.80;5.88;;;14.20;99.90;;;;;;5055537;28;20021;-75
2022/08/30 05:51:34;;;;;;;7.10;5.65;;;14.20;99.90;;;;;;5054415;28;20044;-75
2022/08/30 05:54:00;;;;;;;9.00;6.45;;;14.20;99.90;;;;;;5055452;28;20055;-75
2022/08/30 05:56:36;;;;;;;11.63;6.38;;;14.30;99.90;;;;;;5055677;28;20021;-74
2022/08/30 05:59:05;;;;;;;11.18;6.28;;;14.30;99.90;;;;;;5055219;28;20060;-75
2022/08/30 06:01:38;;;;;;;7.70;5.82;;;14.30;99.90;;;;;;5055296;28;20126;-75
2022/08/30 06:04:07;;;;;;;7.85;6.20;;;14.30;99.90;;;;;;5055865;28;20025;-76
2022/08/30 06:06:35;;;;;;;7.15;5.93;;;14.40;99.90;;;;;;5055209;28;20028;-76
2022/08/30 06:09:05;;;;;;;10.30;6.55;;;14.40;99.90;;;;;;5055081;28;20024;-75
2022/08/30 06:11:32;;;;;;;9.83;7.07;;;14.50;99.90;;;;;;5055434;28;20100;-75
2022/08/30 06:13:57;;;;;;;9.77;6.95;;;14.50;99.90;;;;;;5055071;28;20029;-74
2022/08/30 06:16:25;;;;;;;8.98;6.05;;;14.50;99.90;;;;;;5055350;28;20441;-75
2022/08/30 06:18:52;;;;;;;12.00;7.82;;;14.50;99.90;;;;;;5054614;28;20369;-75
2022/08/30 06:21:26;;;;;;;16.65;8.52;;;14.50;99.90;;;;;;5054713;28;20090;-76
2022/08/30 06:23:53;;;;;;;17.45;9.15;;;14.50;99.90;;;;;;5055492;28;20453;-76
2022/08/30 06:26:18;;;;;;;10.00;7.38;;;14.60;99.90;;;;;;5070419;28;20447;-75
2022/08/30 06:28:44;;;;;;;9.38;6.45;;;14.60;99.90;;;;;;5054667;28;20031;-75
2022/08/30 06:31:13;;;;;;;12.45;8.82;;;14.60;99.90;;;;;;5054964;28;20070;-75
2022/08/30 06:33:39;;;;;;;12.93;8.55;;;14.70;99.90;;;;;;5054942;28;20078;-76
2022/08/30 06:36:11;;;;;;;12.32;8.50;;;14.70;99.90;;;;;;5054907;28;20036;-76
2022/08/30 06:38:38;;;;;;;11.82;8.57;;;14.70;99.90;;;;;;5053827;28;20171;-75
2022/08/30 06:41:08;;;;;;;13.88;8.65;;;14.70;99.90;;;;;;5054526;28;20021;-75
2022/08/30 06:43:34;;;;;;;12.10;8.43;;;14.70;99.90;;;;;;5054794;28;20099;-75
2022/08/30 06:46:04;;;;;;;13.10;8.80;;;14.70;99.90;;;;;;5054736;28;20021;-75
2022/08/30 06:48:30;;;;;;;12.30;9.43;;;14.80;99.90;;;;;;5069459;28;20056;-75
2022/08/30 06:50:56;;;;;;;12.75;9.38;;;14.80;99.90;;;;;;5053198;28;20021;-75
2022/08/30 06:53:22;;;;;;;12.20;8.35;;;14.80;99.90;;;;;;5043721;28;20080;-75
2022/08/30 06:55:59;;;;;;;15.77;9.70;;;14.90;99.90;;;;;;5049428;28;20044;-75
2022/08/30 06:58:26;;;;;;;17.80;8.32;;;14.90;99.90;;;;;;5038114;28;20055;-76
2022/08/30 07:00:52;;;;;;;11.90;9.02;;;15.00;99.90;;;;;;5041787;28;20025;-76
2022/08/30 07:03:18;;;;;;;14.40;9.85;;;15.00;99.90;;;;;;5042851;28;20048;-76
2022/08/30 07:05:43;;;;;;;12.65;9.38;;;15.00;99.90;;;;;;5040288;28;20052;-76
2022/08/30 07:08:09;;;;;;;13.68;9.27;;;15.20;99.90;;;;;;5034762;28;20044;-76
2022/08/30 07:10:38;;;;;;;15.52;8.25;;;15.30;99.90;;;;;;5041834;28;20040;-76
2022/08/30 07:13:04;;;;;;;12.65;8.55;;;15.30;99.90;;;;;;5041561;28;20390;-76
2022/08/30 07:15:29;;;;;;;11.30;7.70;;;15.40;99.90;;;;;;5050847;28;20044;-76
2022/08/30 07:20:39;;;;;;;11.77;6.85;;;15.50;99.90;;;;;;5034238;28;20032;-76
2022/08/30 07:23:05;;;;;;;11.05;7.15;;;15.60;99.90;;;;;;5033859;28;20026;-76
2022/08/30 07:25:31;;;;;;;12.80;7.20;;;15.70;99.90;;;;;;5033786;28;20078;-77
2022/08/30 07:27:57;;;;;;;16.20;7.68;;;15.80;99.90;;;;;;5033733;28;20233;-77
2022/08/30 07:30:23;;;;;;;10.75;6.55;;;15.90;99.90;;;;;;5052133;28;20453;-75
2022/08/30 07:32:49;;;;;;;10.65;7.25;;;16.10;99.90;;;;;;5053890;28;20076;-76
2022/08/30 07:35:15;;;;;;;12.00;7.70;;;16.20;99.90;;;;;;5052231;28;20128;-77
2022/08/30 07:37:40;;;;;;;10.05;6.72;;;16.30;99.90;;;;;;5053396;28;20032;-77
2022/08/30 07:40:07;;;;;;;10.13;7.72;;;16.40;99.90;;;;;;5052683;28;20036;-77
2022/08/30 07:42:33;;;;;;;13.32;7.95;;;16.60;99.90;;;;;;5052030;28;20033;-77
2022/08/30 07:44:59;;;;;;;12.40;8.15;;;16.70;99.90;;;;;;5053976;28;20492;-75
2022/08/30 07:47:25;;;;;;;10.20;7.40;;;16.80;99.90;;;;;;5053344;28;20036;-74
2022/08/30 07:49:50;;;;;;;9.88;7.40;;;16.90;99.90;;;;;;5053185;28;20060;-76
2022/08/30 07:52:16;;;;;;;10.80;8.15;;;17.10;99.90;;;;;;5053145;28;20033;-76
2022/08/30 07:54:42;;;;;;;10.75;7.80;;;17.20;99.90;;;;;;5053316;28;20029;-76
2022/08/30 07:57:07;;;;;;;12.75;8.02;;;17.40;99.90;;;;;;5053197;28;20099;-76
2022/08/30 07:59:33;;;;;;;10.10;7.68;;;17.50;99.90;;;;;;5053021;28;20029;-76
2022/08/30 08:01:59;;;;;;;8.75;6.60;;;17.70;99.90;;;;;;5053247;28;20447;-75
2022/08/30 08:04:25;;;;;;;10.07;7.22;;;17.80;99.90;;;;;;5052598;28;20053;-76
2022/08/30 08:06:50;;;;;;;8.02;6.45;;;17.90;99.90;;;;;;5052916;28;20100;-75
2022/08/30 08:09:16;;;;;;;8.60;6.68;;;18.00;99.90;;;;;;5052589;28;20021;-75
2022/08/30 08:11:42;;;;;;;14.20;7.18;;;18.10;99.90;;;;;;5051957;28;20054;-76
2022/08/30 08:14:09;;;;;;;10.07;8.18;;;18.30;99.90;;;;;;5052968;28;20084;-75
2022/08/30 08:16:36;;;;;;;9.15;7.15;;;18.40;99.90;;;;;;5050642;28;20025;-76
2022/08/30 08:19:07;;;;;;;10.38;7.00;;;18.60;99.90;;;;;;5051337;28;20037;-76
2022/08/30 08:21:33;;;;;;;8.38;6.90;;;18.70;99.90;;;;;;5053386;28;20082;-75
2022/08/30 08:23:59;;;;;;;6.60;5.65;;;18.80;99.90;;;;;;5053061;28;20021;-75
2022/08/30 08:26:24;;;;;;;6.70;5.20;;;19.00;99.90;;;;;;5053064;28;20533;-76
2022/08/30 08:28:50;;;;;;;12.80;5.70;;;19.00;99.90;;;;;;5051451;28;20033;-75
2022/08/30 08:31:22;;;;;;;9.13;5.55;;;19.20;99.90;;;;;;5068772;28;20078;-75
2022/08/30 08:33:48;;;;;;;7.65;5.65;;;19.30;99.90;;;;;;5052986;28;20029;-75
2022/08/30 08:36:14;;;;;;;7.40;5.40;;;19.50;99.90;;;;;;5052983;28;20025;-75
2022/08/30 08:38:40;;;;;;;7.22;5.10;;;19.60;99.90;;;;;;5051313;28;20033;-75
2022/08/30 08:41:11;;;;;;;6.95;5.10;;;19.70;99.90;;;;;;5053421;28;20489;-75
2022/08/30 08:43:38;;;;;;;8.40;4.88;;;19.90;99.90;;;;;;5033219;28;20052;-75
2022/08/30 08:46:32;;;;;;;6.78;5.00;;;20.00;99.90;;;;;;5033526;28;20022;-74
2022/08/30 08:49:03;;;;;;;7.32;5.22;;;20.10;99.90;;;;;;5037215;28;20489;-75
2022/08/30 08:54:38;;;;;;;7.47;4.93;;;20.20;99.90;;;;;;5053132;28;20489;-75
2022/08/30 08:57:03;;;;;;;5.93;4.50;;;20.40;99.90;;;;;;5053204;28;20115;-75
2022/08/30 08:59:30;;;;;;;8.48;4.47;;;20.50;99.90;;;;;;5051055;28;20573;-74
2022/08/30 09:02:01;;;;;;;6.22;5.00;;;20.60;99.90;;;;;;5055131;28;20021;-73
2022/08/30 09:04:36;;;;;;;7.63;4.90;;;20.70;99.90;;;;;;5056409;28;20050;-74
2022/08/30 09:07:20;;;;;;;6.85;4.75;;;20.80;99.90;;;;;;5056513;28;20040;-74
2022/08/30 09:09:45;;;;;;;6.45;5.32;;;20.90;99.90;;;;;;5054666;28;20029;-74
2022/08/30 09:12:12;;;;;;;6.68;4.85;;;21.10;99.90;;;;;;5056189;28;20033;-74
2022/08/30 09:14:42;;;;;;;7.75;4.72;;;21.20;99.90;;;;;;5056349;28;20051;-75
2022/08/30 09:17:12;;;;;;;7.32;4.80;;;21.30;99.90;;;;;;5056851;28;20025;-75
2022/08/30 09:19:41;;;;;;;8.48;5.22;;;21.50;99.90;;;;;;5056481;28;20027;-76
2022/08/30 09:22:35;;;;;;;6.22;4.70;;;21.60;99.90;;;;;;5055683;28;20048;-73
2022/08/30 09:25:19;;;;;;;7.53;4.93;;;21.80;99.90;;;;;;5056066;28;20025;-73
2022/08/30 09:27:47;;;;;;;7.75;4.40;;;22.00;99.90;;;;;;5055980;28;20106;-72
2022/08/30 09:30:25;;;;;;;5.93;4.38;;;22.10;99.90;;;;;;5056107;28;20021;-73
2022/08/30 09:32:59;;;;;;;6.10;4.30;;;22.30;99.90;;;;;;5056584;28;20039;-74
2022/08/30 09:35:40;;;;;;;7.28;4.80;;;22.40;99.90;;;;;;5054697;28;20033;-73
2022/08/30 09:38:17;;;;;;;6.90;5.05;;;22.60;99.90;;;;;;5055900;28;20108;-73
2022/08/30 09:40:49;;;;;;;6.63;4.45;;;22.70;99.90;;;;;;5054269;28;20028;-73
2022/08/30 09:43:26;;;;;;;6.10;4.53;;;22.90;99.90;;;;;;5055678;28;20021;-73
2022/08/30 09:45:58;;;;;;;6.90;4.32;;;23.00;99.90;;;;;;5055772;28;20469;-72
2022/08/30 09:48:42;;;;;;;5.53;4.03;;;23.20;99.90;;;;;;5055521;28;20025;-75
2022/08/30 09:51:14;;;;;;;5.78;4.28;;;23.30;99.90;;;;;;5055513;28;20063;-75
2022/08/30 09:54:01;;;;;;;5.88;4.00;;;23.50;99.90;;;;;;5056004;28;20103;-74
2022/08/30 09:56:38;;;;;;;4.88;4.38;;;23.60;99.60;;;;;;5054132;28;20391;-75
2022/08/30 09:59:28;;;;;;;6.63;4.55;;;23.70;99.40;;;;;;5055577;28;20029;-74
2022/08/30 10:02:01;;;;;;;6.10;4.45;;;23.80;98.40;;;;;;5055281;28;20025;-74
2022/08/30 10:04:55;;;;;;;5.88;4.30;;;24.00;98.70;;;;;;5055241;28;20519;-74
2022/08/30 10:07:44;;;;;;;5.50;4.50;;;24.10;98.90;;;;;;5055421;28;20032;-74
2022/08/30 10:10:27;;;;;;;6.32;4.50;;;24.20;98.30;;;;;;5055451;28;20481;-74
2022/08/30 10:12:56;;;;;;;5.38;4.35;;;24.30;98.80;;;;;;5053784;28;20037;-74
2022/08/30 10:15:27;;;;;;;5.35;4.07;;;24.40;99.90;;;;;;5055071;28;20040;-74
2022/08/30 10:18:30;;;;;;;5.45;4.15;;;24.60;99.00;;;;;;5054835;28;20388;-73
2022/08/30 10:21:24;;;;;;;5.82;4.80;;;24.70;98.20;;;;;;5054253;28;20500;-73
2022/08/30 10:23:56;;;;;;;6.30;4.50;;;24.80;98.10;;;;;;5055483;28;20025;-74
2022/08/30 10:26:34;;;;;;;5.95;4.22;;;24.80;98.10;;;;;;5054453;28;20023;-73
2022/08/30 10:29:27;;;;;;;5.82;4.00;;;24.90;97.00;;;;;;5054554;28;20040;-74
2022/08/30 10:31:55;;;;;;;5.43;3.70;;;25.10;96.70;;;;;;5054589;28;20032;-73
2022/08/30 10:34:43;;;;;;;4.30;3.83;;;25.10;96.40;;;;;;5053690;28;20083;-73
2022/08/30 10:37:23;;;;;;;4.72;4.07;;;25.30;95.00;;;;;;5053958;28;20029;-73
2022/08/30 10:39:58;;;;;;;5.47;3.90;;;25.40;95.10;;;;;;5051414;28;20481;-73
2022/08/30 10:42:32;;;;;;;4.43;3.63;;;25.40;94.30;;;;;;5054626;28;20516;-73
2022/08/30 10:45:09;;;;;;;5.10;3.97;;;25.60;93.20;;;;;;5054767;28;20056;-73
2022/08/30 10:47:51;;;;;;;4.82;3.90;;;25.70;93.20;;;;;;5054802;28;20029;-73
2022/08/30 10:50:31;;;;;;;5.47;3.65;;;25.70;92.90;;;;;;5039559;28;20040;-73
2022/08/30 10:53:08;;;;;;;5.57;3.67;;;25.70;93.20;;;;;;5051507;28;20385;-73
2022/08/30 10:55:49;;;;;;;3.88;3.33;;;25.70;91.00;;;;;;5054342;28;20033;-72
2022/08/30 10:58:16;;;;;;;;;;;25.80;87.10;;;;;;5054297;28;20537;-72
2022/08/30 11:01:19;;;;;;;5.07;3.85;;;25.90;89.50;;;;;;5053632;28;19909;-72
2022/08/30 11:04:08;;;;;;;4.05;3.53;;;26.00;91.40;;;;;;5053011;28;20048;-72
2022/08/30 11:06:45;;;;;;;6.90;4.13;;;26.10;92.00;;;;;;5054393;28;20523;-72
2022/08/30 11:09:34;;;;;;;5.60;3.65;;;26.20;90.00;;;;;;5054338;28;20025;-72
2022/08/30 11:12:18;;;;;;;7.25;4.03;;;26.20;90.60;;;;;;5054514;28;20039;-72
2022/08/30 11:14:45;;;;;;;6.93;3.72;;;26.20;89.30;;;;;;5053835;28;20071;-71
2022/08/30 11:17:45;;;;;;;5.90;3.40;;;26.20;87.80;;;;;;5053754;28;20033;-71
2022/08/30 11:20:57;;;;;;;6.25;3.65;;;26.10;88.10;;;;;;5053674;28;20029;-71
2022/08/30 11:23:30;;;;;;;5.75;3.22;;;26.10;88.40;;;;;;5035243;28;20430;-73
2022/08/30 11:26:10;;;;;;;4.53;3.33;;;26.20;87.80;;;;;;5053108;28;20037;-73
2022/08/30 11:28:36;;;;;;;6.47;3.28;;;26.30;85.20;;;;;;5047402;28;20021;-73
2022/08/30 11:31:19;;;;;;;3.90;3.50;;;26.50;85.10;;;;;;5044057;28;20039;-73
2022/08/30 11:33:49;;;;;;;5.72;3.30;;;26.70;86.00;;;;;;5039753;28;20033;-73
2022/08/30 11:36:37;;;;;;;5.60;3.70;;;26.90;89.30;;;;;;5051503;28;20125;-73
2022/08/30 11:39:12;;;;;;;5.53;3.17;;;27.00;85.10;;;;;;5044525;28;20493;-72
2022/08/30 11:41:44;;;;;;;5.05;3.50;;;27.10;83.10;;;;;;5043155;28;20436;-73
2022/08/30 11:44:23;;;;;;;6.90;3.60;;;27.20;82.10;;;;;;5053314;28;20025;-73
2022/08/30 11:46:49;;;;;;;;;;;27.20;82.30;;;;;;5040691;28;20143;-73
2022/08/30 11:49:18;;;;;;;;;;;27.30;79.50;;;;;;5048195;28;19999;-73
2022/08/30 11:51:53;;;;;;;;;;;27.40;77.90;;;;;;5050498;28;19920;-73
2022/08/30 11:54:37;;;;;;;;;;;27.40;76.80;;;;;;5053796;28;20004;-73
2022/08/30 11:57:09;;;;;;;;;;;27.30;76.30;;;;;;5042913;28;19920;-73
2022/08/30 11:59:38;;;;;;;;;;;27.40;76.10;;;;;;5039923;28;20003;-73
2022/08/30 12:02:05;;;;;;;;;;;27.50;75.90;;;;;;5037976;28;19963;-73
2022/08/30 12:04:57;;;;;;;;;;;27.50;77.10;;;;;;5042615;28;19967;-73
2022/08/30 12:07:41;;;;;;;;;;;27.50;72.30;;;;;;5053026;28;19913;-72
2022/08/30 12:10:20;;;;;;;;;;;27.40;76.30;;;;;;5047809;28;19913;-72
2022/08/30 12:12:46;;;;;;;;;;;27.40;73.60;;;;;;5033936;28;19936;-72
2022/08/30 12:15:47;;;;;;;;;;;27.40;76.30;;;;;;5048119;28;19923;-72
2022/08/30 12:18:48;;;;;;;;;;;27.40;74.80;;;;;;5052642;28;20385;-72
2022/08/30 12:21:19;;;;;;;;;;;27.40;74.30;;;;;;5052527;28;19912;-72
2022/08/30 12:24:02;;;;;;;;;;;27.50;76.40;;;;;;5053296;28;19912;-72
2022/08/30 12:26:33;;;;;;;;;;;27.60;75.40;;;;;;5051031;28;19920;-73
2022/08/30 12:29:04;;;;;;;;;;;27.50;73.90;;;;;;5043510;28;20008;-73
2022/08/30 12:31:30;;;;;;;;;;;27.50;73.40;;;;;;5053517;28;19999;-72
2022/08/30 12:33:58;;;;;;;;;;;27.50;73.30;;;;;;5033421;28;20412;-72
2022/08/30 12:36:47;;;;;;;;;;;27.60;74.50;;;;;;5037698;28;20023;-73
2022/08/30 12:39:24;;;;;;;;;;;27.60;74.40;;;;;;5057537;28;20357;-72
2022/08/30 12:41:50;;;;;;;;;;;27.60;74.00;;;;;;5057487;28;19908;-71
2022/08/30 12:44:22;;;;;;;;;;;27.60;74.20;;;;;;5042988;28;19945;-72
2022/08/30 12:46:49;;;;;;;;;;;27.50;73.60;;;;;;5057123;28;19913;-72
2022/08/30 12:49:16;;;;;;;;;;;27.50;73.40;;;;;;5056803;28;19909;-69
2022/08/30 12:51:42;;;;;;;;;;;27.60;74.30;;;;;;5057062;28;19909;-69
2022/08/30 12:54:13;;;;;;;;;;;27.60;74.70;;;;;;5057645;28;19912;-69
2022/08/30 12:56:53;;;;;;;;;;;27.60;74.00;;;;;;5056587;28;20433;-70
2022/08/30 12:59:37;;;;;;;;;;;27.60;74.90;;;;;;5057692;28;19962;-70
2022/08/30 13:02:10;;;;;;;;;;;27.60;73.40;;;;;;5057171;28;19916;-69
2022/08/30 13:04:37;;;;;;;;;;;27.50;73.60;;;;;;5057156;28;19909;-70
2022/08/30 13:07:03;;;;;;;;;;;27.30;73.40;;;;;;5056731;28;20363;-72
2022/08/30 13:09:32;;;;;;;;;;;27.20;73.60;;;;;;5056733;28;19917;-72
2022/08/30 13:11:59;;;;;;;;;;;27.10;73.10;;;;;;5056635;28;19913;-73
2022/08/30 13:14:38;;;;;;;;;;;27.10;73.60;;;;;;5057046;28;19924;-72
2022/08/30 13:17:05;;;;;;;;;;;27.10;73.00;;;;;;5056294;28;19923;-72